sensor_id;sensor_type;location;lat;lon;timestamp;P1;durP1;ratioP1;P2;durP2;ratioP2
26718;SDS011;14326;50.794;6.060;2023-04-03T00:00:52;15.52;;;5.70;;
26718;SDS011;14326;50.794;6.060;2023-04-03T00:03:31;14.35;;;5.90;;
26718;SDS011;14326;50.794;6.060;2023-04-03T00:06:00;15.15;;;4.85;;
26718;SDS011;14326;50.794;6.060;2023-04-03T00:08:29;15.70;;;5.80;;
26718;SDS011;14326;50.794;6.060;2023-04-03T00:13:37;14.23;;;5.35;;
26718;SDS011;14326;50.794;6.060;2023-04-03T00:16:21;16.75;;;5.40;;
26718;SDS011;14326;50.794;6.060;2023-04-03T00:18:59;14.73;;;5.38;;
26718;SDS011;14326;50.794;6.060;2023-04-03T00:21:38;18.25;;;5.38;;
26718;SDS011;14326;50.794;6.060;2023-04-03T00:24:05;19.63;;;4.63;;
26718;SDS011;14326;50.794;6.060;2023-04-03T00:26:47;11.15;;;4.40;;
26718;SDS011;14326;50.794;6.060;2023-04-03T00:29:14;15.30;;;5.32;;
26718;SDS011;14326;50.794;6.060;2023-04-03T00:31:44;14.85;;;5.05;;
26718;SDS011;14326;50.794;6.060;2023-04-03T00:34:12;15.63;;;5.28;;
26718;SDS011;14326;50.794;6.060;2023-04-03T00:36:38;15.77;;;4.63;;
26718;SDS011;14326;50.794;6.060;2023-04-03T00:39:06;13.25;;;4.93;;
26718;SDS011;14326;50.794;6.060;2023-04-03T00:41:33;15.55;;;5.18;;
26718;SDS011;14326;50.794;6.060;2023-04-03T00:47:29;14.25;;;4.70;;
26718;SDS011;14326;50.794;6.060;2023-04-03T00:50:05;13.65;;;5.05;;
26718;SDS011;14326;50.794;6.060;2023-04-03T00:53:14;15.80;;;4.72;;
26718;SDS011;14326;50.794;6.060;2023-04-03T00:55:44;14.30;;;4.93;;
26718;SDS011;14326;50.794;6.060;2023-04-03T00:58:20;16.73;;;4.80;;
26718;SDS011;14326;50.794;6.060;2023-04-03T01:01:18;13.98;;;4.65;;
26718;SDS011;14326;50.794;6.060;2023-04-03T01:06:36;14.13;;;4.75;;
26718;SDS011;14326;50.794;6.060;2023-04-03T01:14:08;14.88;;;4.70;;
26718;SDS011;14326;50.794;6.060;2023-04-03T01:17:00;16.48;;;5.10;;
26718;SDS011;14326;50.794;6.060;2023-04-03T01:19:36;14.43;;;5.90;;
26718;SDS011;14326;50.794;6.060;2023-04-03T01:22:24;16.73;;;5.22;;
26718;SDS011;14326;50.794;6.060;2023-04-03T01:25:15;13.80;;;4.50;;
26718;SDS011;14326;50.794;6.060;2023-04-03T01:27:42;15.75;;;4.95;;
26718;SDS011;14326;50.794;6.060;2023-04-03T01:30:10;14.77;;;4.70;;
26718;SDS011;14326;50.794;6.060;2023-04-03T01:35:08;16.52;;;4.88;;
26718;SDS011;14326;50.794;6.060;2023-04-03T01:42:50;15.40;;;4.47;;
26718;SDS011;14326;50.794;6.060;2023-04-03T01:45:31;10.63;;;4.32;;
26718;SDS011;14326;50.794;6.060;2023-04-03T01:50:35;15.05;;;4.25;;
26718;SDS011;14326;50.794;6.060;2023-04-03T01:58:18;13.88;;;4.20;;
26718;SDS011;14326;50.794;6.060;2023-04-03T02:06:00;11.82;;;3.65;;
26718;SDS011;14326;50.794;6.060;2023-04-03T02:13:35;14.75;;;4.25;;
26718;SDS011;14326;50.794;6.060;2023-04-03T02:21:19;12.82;;;4.10;;
26718;SDS011;14326;50.794;6.060;2023-04-03T02:51:02;10.70;;;3.60;;
26718;SDS011;14326;50.794;6.060;2023-04-03T02:53:31;13.60;;;3.53;;
26718;SDS011;14326;50.794;6.060;2023-04-03T02:56:02;13.05;;;3.97;;
26718;SDS011;14326;50.794;6.060;2023-04-03T02:58:35;13.40;;;3.80;;
26718;SDS011;14326;50.794;6.060;2023-04-03T03:09:38;9.73;;;3.70;;
26718;SDS011;14326;50.794;6.060;2023-04-03T03:14:39;14.73;;;4.25;;
26718;SDS011;14326;50.794;6.060;2023-04-03T03:17:15;10.93;;;4.32;;
26718;SDS011;14326;50.794;6.060;2023-04-03T03:22:21;11.20;;;3.70;;
26718;SDS011;14326;50.794;6.060;2023-04-03T03:27:35;17.50;;;4.18;;
26718;SDS011;14326;50.794;6.060;2023-04-03T03:30:37;10.63;;;3.50;;
26718;SDS011;14326;50.794;6.060;2023-04-03T03:33:05;12.35;;;4.03;;
26718;SDS011;14326;50.794;6.060;2023-04-03T03:35:37;10.75;;;4.05;;
26718;SDS011;14326;50.794;6.060;2023-04-03T03:39:36;17.30;;;4.47;;
26718;SDS011;14326;50.794;6.060;2023-04-03T03:41:09;12.15;;;4.32;;
26718;SDS011;14326;50.794;6.060;2023-04-03T03:43:50;15.13;;;4.63;;
26718;SDS011;14326;50.794;6.060;2023-04-03T03:49:30;9.35;;;4.03;;
26718;SDS011;14326;50.794;6.060;2023-04-03T03:51:57;12.18;;;4.35;;
26718;SDS011;14326;50.794;6.060;2023-04-03T03:54:37;17.60;;;5.32;;
26718;SDS011;14326;50.794;6.060;2023-04-03T03:57:25;16.23;;;4.47;;
26718;SDS011;14326;50.794;6.060;2023-04-03T04:00:17;13.85;;;4.10;;
26718;SDS011;14326;50.794;6.060;2023-04-03T04:02:50;15.50;;;4.75;;
26718;SDS011;14326;50.794;6.060;2023-04-03T04:05:19;15.07;;;4.32;;
26718;SDS011;14326;50.794;6.060;2023-04-03T04:07:55;20.75;;;5.45;;
26718;SDS011;14326;50.794;6.060;2023-04-03T04:10:39;14.70;;;4.75;;
26718;SDS011;14326;50.794;6.060;2023-04-03T04:13:07;11.88;;;4.13;;
26718;SDS011;14326;50.794;6.060;2023-04-03T04:15:41;13.10;;;4.45;;
26718;SDS011;14326;50.794;6.060;2023-04-03T04:18:12;15.23;;;4.80;;
26718;SDS011;14326;50.794;6.060;2023-04-03T04:20:44;15.65;;;5.55;;
26718;SDS011;14326;50.794;6.060;2023-04-03T04:23:11;14.30;;;4.80;;
26718;SDS011;14326;50.794;6.060;2023-04-03T04:25:40;17.60;;;5.30;;
26718;SDS011;14326;50.794;6.060;2023-04-03T04:28:10;16.63;;;5.00;;
26718;SDS011;14326;50.794;6.060;2023-04-03T04:30:50;14.93;;;5.03;;
26718;SDS011;14326;50.794;6.060;2023-04-03T04:33:22;15.77;;;4.68;;
26718;SDS011;14326;50.794;6.060;2023-04-03T04:36:08;17.35;;;4.70;;
26718;SDS011;14326;50.794;6.060;2023-04-03T04:38:39;12.27;;;4.82;;
26718;SDS011;14326;50.794;6.060;2023-04-03T04:41:24;19.98;;;5.53;;
26718;SDS011;14326;50.794;6.060;2023-04-03T04:43:59;14.00;;;5.10;;
26718;SDS011;14326;50.794;6.060;2023-04-03T04:46:44;18.40;;;5.93;;
26718;SDS011;14326;50.794;6.060;2023-04-03T04:49:18;17.48;;;6.03;;
26718;SDS011;14326;50.794;6.060;2023-04-03T04:51:57;17.95;;;6.05;;
26718;SDS011;14326;50.794;6.060;2023-04-03T04:54:41;16.23;;;5.95;;
26718;SDS011;14326;50.794;6.060;2023-04-03T04:57:14;20.20;;;6.38;;
26718;SDS011;14326;50.794;6.060;2023-04-03T05:03:09;19.63;;;6.82;;
26718;SDS011;14326;50.794;6.060;2023-04-03T05:05:49;17.77;;;6.65;;
26718;SDS011;14326;50.794;6.060;2023-04-03T05:08:34;19.98;;;7.72;;
26718;SDS011;14326;50.794;6.060;2023-04-03T05:11:16;19.38;;;8.07;;
26718;SDS011;14326;50.794;6.060;2023-04-03T05:13:55;23.25;;;7.63;;
26718;SDS011;14326;50.794;6.060;2023-04-03T05:16:37;19.33;;;8.40;;
26718;SDS011;14326;50.794;6.060;2023-04-03T05:19:26;19.60;;;6.93;;
26718;SDS011;14326;50.794;6.060;2023-04-03T05:22:09;17.42;;;7.43;;
26718;SDS011;14326;50.794;6.060;2023-04-03T05:24:47;21.23;;;7.47;;
26718;SDS011;14326;50.794;6.060;2023-04-03T05:30:19;19.90;;;7.97;;
26718;SDS011;14326;50.794;6.060;2023-04-03T05:32:59;22.48;;;8.38;;
26718;SDS011;14326;50.794;6.060;2023-04-03T05:35:45;23.45;;;9.13;;
26718;SDS011;14326;50.794;6.060;2023-04-03T05:38:27;20.95;;;7.70;;
26718;SDS011;14326;50.794;6.060;2023-04-03T05:41:15;22.13;;;8.77;;
26718;SDS011;14326;50.794;6.060;2023-04-03T05:44:02;20.08;;;8.50;;
26718;SDS011;14326;50.794;6.060;2023-04-03T05:46:30;20.75;;;7.50;;
26718;SDS011;14326;50.794;6.060;2023-04-03T05:49:00;17.88;;;7.75;;
26718;SDS011;14326;50.794;6.060;2023-04-03T05:51:54;26.15;;;9.05;;
26718;SDS011;14326;50.794;6.060;2023-04-03T05:54:24;18.85;;;6.45;;
26718;SDS011;14326;50.794;6.060;2023-04-03T05:57:03;16.38;;;5.88;;
26718;SDS011;14326;50.794;6.060;2023-04-03T05:59:38;18.13;;;6.00;;
26718;SDS011;14326;50.794;6.060;2023-04-03T06:02:16;21.48;;;5.97;;
26718;SDS011;14326;50.794;6.060;2023-04-03T06:05:03;19.15;;;6.10;;
26718;SDS011;14326;50.794;6.060;2023-04-03T06:07:44;15.63;;;5.65;;
26718;SDS011;14326;50.794;6.060;2023-04-03T06:10:11;18.58;;;5.57;;
26718;SDS011;14326;50.794;6.060;2023-04-03T06:12:39;16.00;;;5.25;;
26718;SDS011;14326;50.794;6.060;2023-04-03T06:15:09;16.13;;;6.22;;
26718;SDS011;14326;50.794;6.060;2023-04-03T06:17:42;16.75;;;5.82;;
26718;SDS011;14326;50.794;6.060;2023-04-03T06:20:21;17.00;;;6.35;;
26718;SDS011;14326;50.794;6.060;2023-04-03T06:22:50;17.38;;;6.10;;
26718;SDS011;14326;50.794;6.060;2023-04-03T06:25:17;20.67;;;7.13;;
26718;SDS011;14326;50.794;6.060;2023-04-03T06:27:47;19.17;;;7.13;;
26718;SDS011;14326;50.794;6.060;2023-04-03T06:30:14;22.50;;;8.10;;
26718;SDS011;14326;50.794;6.060;2023-04-03T06:32:44;20.05;;;6.82;;
26718;SDS011;14326;50.794;6.060;2023-04-03T06:35:21;20.88;;;7.68;;
26718;SDS011;14326;50.794;6.060;2023-04-03T06:37:58;21.77;;;6.85;;
26718;SDS011;14326;50.794;6.060;2023-04-03T06:40:47;22.08;;;7.57;;
26718;SDS011;14326;50.794;6.060;2023-04-03T06:43:19;18.38;;;7.38;;
26718;SDS011;14326;50.794;6.060;2023-04-03T06:46:01;17.27;;;6.90;;
26718;SDS011;14326;50.794;6.060;2023-04-03T06:48:48;18.25;;;7.38;;
26718;SDS011;14326;50.794;6.060;2023-04-03T06:51:23;20.20;;;6.60;;
26718;SDS011;14326;50.794;6.060;2023-04-03T06:54:08;18.88;;;6.47;;
26718;SDS011;14326;50.794;6.060;2023-04-03T06:56:46;17.08;;;6.45;;
26718;SDS011;14326;50.794;6.060;2023-04-03T06:59:14;22.30;;;6.97;;
26718;SDS011;14326;50.794;6.060;2023-04-03T07:01:46;16.23;;;5.32;;
26718;SDS011;14326;50.794;6.060;2023-04-03T07:04:22;17.55;;;5.47;;
26718;SDS011;14326;50.794;6.060;2023-04-03T07:06:56;17.58;;;6.13;;
26718;SDS011;14326;50.794;6.060;2023-04-03T07:09:25;15.57;;;5.10;;
26718;SDS011;14326;50.794;6.060;2023-04-03T07:12:00;15.57;;;5.13;;
26718;SDS011;14326;50.794;6.060;2023-04-03T07:14:52;16.02;;;4.95;;
26718;SDS011;14326;50.794;6.060;2023-04-03T07:17:19;15.38;;;4.80;;
26718;SDS011;14326;50.794;6.060;2023-04-03T07:19:49;16.30;;;5.15;;
26718;SDS011;14326;50.794;6.060;2023-04-03T07:22:19;15.55;;;4.97;;
26718;SDS011;14326;50.794;6.060;2023-04-03T07:24:51;16.85;;;5.35;;
26718;SDS011;14326;50.794;6.060;2023-04-03T07:27:21;16.20;;;4.90;;
26718;SDS011;14326;50.794;6.060;2023-04-03T07:29:48;14.77;;;4.53;;
26718;SDS011;14326;50.794;6.060;2023-04-03T07:32:22;14.90;;;4.32;;
26718;SDS011;14326;50.794;6.060;2023-04-03T07:34:50;15.25;;;4.00;;
26718;SDS011;14326;50.794;6.060;2023-04-03T07:37:45;14.60;;;3.60;;
26718;SDS011;14326;50.794;6.060;2023-04-03T07:40:18;16.48;;;4.05;;
26718;SDS011;14326;50.794;6.060;2023-04-03T07:43:27;16.05;;;4.05;;
26718;SDS011;14326;50.794;6.060;2023-04-03T07:46:00;12.88;;;3.50;;
26718;SDS011;14326;50.794;6.060;2023-04-03T07:48:39;17.63;;;3.45;;
26718;SDS011;14326;50.794;6.060;2023-04-03T07:51:10;18.40;;;3.90;;
26718;SDS011;14326;50.794;6.060;2023-04-03T07:53:59;13.45;;;3.78;;
26718;SDS011;14326;50.794;6.060;2023-04-03T07:56:36;17.08;;;3.55;;
26718;SDS011;14326;50.794;6.060;2023-04-03T07:59:16;11.15;;;3.42;;
26718;SDS011;14326;50.794;6.060;2023-04-03T08:01:43;12.55;;;3.75;;
26718;SDS011;14326;50.794;6.060;2023-04-03T08:04:10;11.02;;;3.70;;
26718;SDS011;14326;50.794;6.060;2023-04-03T08:06:59;13.43;;;3.65;;
26718;SDS011;14326;50.794;6.060;2023-04-03T08:10:07;14.50;;;3.70;;
26718;SDS011;14326;50.794;6.060;2023-04-03T08:12:51;15.55;;;3.88;;
26718;SDS011;14326;50.794;6.060;2023-04-03T08:15:25;15.15;;;3.67;;
26718;SDS011;14326;50.794;6.060;2023-04-03T08:18:11;14.60;;;4.00;;
26718;SDS011;14326;50.794;6.060;2023-04-03T08:20:54;12.15;;;3.47;;
26718;SDS011;14326;50.794;6.060;2023-04-03T08:23:41;14.73;;;3.30;;
26718;SDS011;14326;50.794;6.060;2023-04-03T08:26:17;17.67;;;4.60;;
26718;SDS011;14326;50.794;6.060;2023-04-03T08:28:52;15.27;;;4.25;;
26718;SDS011;14326;50.794;6.060;2023-04-03T08:31:23;14.32;;;3.92;;
26718;SDS011;14326;50.794;6.060;2023-04-03T08:33:51;12.02;;;3.28;;
26718;SDS011;14326;50.794;6.060;2023-04-03T08:36:18;18.45;;;4.28;;
26718;SDS011;14326;50.794;6.060;2023-04-03T08:38:49;15.73;;;3.35;;
26718;SDS011;14326;50.794;6.060;2023-04-03T08:41:29;15.45;;;4.20;;
26718;SDS011;14326;50.794;6.060;2023-04-03T08:44:07;11.68;;;3.10;;
26718;SDS011;14326;50.794;6.060;2023-04-03T08:47:08;14.30;;;3.47;;
26718;SDS011;14326;50.794;6.060;2023-04-03T08:49:53;11.23;;;3.40;;
26718;SDS011;14326;50.794;6.060;2023-04-03T08:52:28;20.23;;;3.42;;
26718;SDS011;14326;50.794;6.060;2023-04-03T08:55:03;14.48;;;3.50;;
26718;SDS011;14326;50.794;6.060;2023-04-03T08:57:50;13.68;;;3.50;;
26718;SDS011;14326;50.794;6.060;2023-04-03T09:00:37;11.25;;;2.90;;
26718;SDS011;14326;50.794;6.060;2023-04-03T09:03:11;9.15;;;2.50;;
26718;SDS011;14326;50.794;6.060;2023-04-03T09:05:45;10.25;;;2.53;;
26718;SDS011;14326;50.794;6.060;2023-04-03T09:08:21;11.88;;;3.00;;
26718;SDS011;14326;50.794;6.060;2023-04-03T09:10:52;12.50;;;2.78;;
26718;SDS011;14326;50.794;6.060;2023-04-03T09:13:35;8.35;;;2.47;;
26718;SDS011;14326;50.794;6.060;2023-04-03T09:16:25;12.32;;;2.90;;
26718;SDS011;14326;50.794;6.060;2023-04-03T09:19:08;14.75;;;2.88;;
26718;SDS011;14326;50.794;6.060;2023-04-03T09:21:49;10.45;;;2.92;;
26718;SDS011;14326;50.794;6.060;2023-04-03T09:24:21;10.27;;;2.95;;
26718;SDS011;14326;50.794;6.060;2023-04-03T09:27:03;12.20;;;3.00;;
26718;SDS011;14326;50.794;6.060;2023-04-03T09:29:52;11.90;;;3.35;;
26718;SDS011;14326;50.794;6.060;2023-04-03T09:32:25;12.27;;;3.10;;
26718;SDS011;14326;50.794;6.060;2023-04-03T09:34:54;17.13;;;3.90;;
26718;SDS011;14326;50.794;6.060;2023-04-03T09:37:34;14.40;;;3.15;;
26718;SDS011;14326;50.794;6.060;2023-04-03T09:40:33;14.65;;;3.08;;
26718;SDS011;14326;50.794;6.060;2023-04-03T09:43:28;13.07;;;2.72;;
26718;SDS011;14326;50.794;6.060;2023-04-03T09:52:18;11.35;;;2.80;;
26718;SDS011;14326;50.794;6.060;2023-04-03T09:55:02;6.70;;;2.40;;
26718;SDS011;14326;50.794;6.060;2023-04-03T09:58:00;13.20;;;2.90;;
26718;SDS011;14326;50.794;6.060;2023-04-03T10:00:39;11.93;;;3.05;;
26718;SDS011;14326;50.794;6.060;2023-04-03T10:03:20;8.25;;;2.17;;
26718;SDS011;14326;50.794;6.060;2023-04-03T10:09:01;10.20;;;3.08;;
26718;SDS011;14326;50.794;6.060;2023-04-03T10:11:39;9.02;;;2.55;;
26718;SDS011;14326;50.794;6.060;2023-04-03T10:14:30;9.05;;;2.40;;
26718;SDS011;14326;50.794;6.060;2023-04-03T10:17:08;9.55;;;2.55;;
26718;SDS011;14326;50.794;6.060;2023-04-03T10:20:20;14.50;;;3.08;;
26718;SDS011;14326;50.794;6.060;2023-04-03T10:23:26;13.20;;;3.63;;
26718;SDS011;14326;50.794;6.060;2023-04-03T10:26:06;9.88;;;2.85;;
26718;SDS011;14326;50.794;6.060;2023-04-03T10:29:10;14.60;;;2.90;;
26718;SDS011;14326;50.794;6.060;2023-04-03T10:31:53;12.50;;;2.72;;
26718;SDS011;14326;50.794;6.060;2023-04-03T10:34:26;10.10;;;2.63;;
26718;SDS011;14326;50.794;6.060;2023-04-03T10:37:10;10.25;;;2.50;;
26718;SDS011;14326;50.794;6.060;2023-04-03T10:39:47;14.13;;;2.55;;
26718;SDS011;14326;50.794;6.060;2023-04-03T10:42:22;12.65;;;2.53;;
26718;SDS011;14326;50.794;6.060;2023-04-03T10:45:03;9.23;;;2.28;;
26718;SDS011;14326;50.794;6.060;2023-04-03T10:47:43;14.95;;;2.45;;
26718;SDS011;14326;50.794;6.060;2023-04-03T10:50:23;10.05;;;1.98;;
26718;SDS011;14326;50.794;6.060;2023-04-03T10:53:01;9.55;;;2.10;;
26718;SDS011;14326;50.794;6.060;2023-04-03T10:55:55;7.63;;;2.15;;
26718;SDS011;14326;50.794;6.060;2023-04-03T10:58:31;16.58;;;2.80;;
26718;SDS011;14326;50.794;6.060;2023-04-03T11:04:04;10.73;;;2.30;;
26718;SDS011;14326;50.794;6.060;2023-04-03T11:06:36;6.05;;;1.83;;
26718;SDS011;14326;50.794;6.060;2023-04-03T11:09:28;6.47;;;1.77;;
26718;SDS011;14326;50.794;6.060;2023-04-03T11:15:03;8.23;;;2.25;;
26718;SDS011;14326;50.794;6.060;2023-04-03T11:17:41;7.63;;;1.95;;
26718;SDS011;14326;50.794;6.060;2023-04-03T11:20:30;9.02;;;2.22;;
26718;SDS011;14326;50.794;6.060;2023-04-03T11:23:15;13.23;;;2.40;;
26718;SDS011;14326;50.794;6.060;2023-04-03T11:25:59;5.38;;;1.50;;
26718;SDS011;14326;50.794;6.060;2023-04-03T11:28:37;9.07;;;1.85;;
26718;SDS011;14326;50.794;6.060;2023-04-03T11:34:32;10.23;;;1.90;;
26718;SDS011;14326;50.794;6.060;2023-04-03T11:37:11;6.18;;;1.58;;
26718;SDS011;14326;50.794;6.060;2023-04-03T11:40:21;10.48;;;2.22;;
26718;SDS011;14326;50.794;6.060;2023-04-03T11:43:02;9.00;;;1.92;;
26718;SDS011;14326;50.794;6.060;2023-04-03T11:45:49;9.80;;;1.88;;
26718;SDS011;14326;50.794;6.060;2023-04-03T11:48:52;4.80;;;1.40;;
26718;SDS011;14326;50.794;6.060;2023-04-03T11:51:45;10.02;;;1.90;;
26718;SDS011;14326;50.794;6.060;2023-04-03T12:04:29;12.30;;;2.50;;
26718;SDS011;14326;50.794;6.060;2023-04-03T12:10:01;6.10;;;1.67;;
26718;SDS011;14326;50.794;6.060;2023-04-03T12:12:42;11.05;;;2.70;;
26718;SDS011;14326;50.794;6.060;2023-04-03T12:18:43;9.25;;;1.70;;
26718;SDS011;14326;50.794;6.060;2023-04-03T12:21:24;7.28;;;1.55;;
26718;SDS011;14326;50.794;6.060;2023-04-03T12:24:46;5.80;;;1.27;;
26718;SDS011;14326;50.794;6.060;2023-04-03T12:27:26;10.00;;;1.88;;
26718;SDS011;14326;50.794;6.060;2023-04-03T12:33:01;7.00;;;1.70;;
26718;SDS011;14326;50.794;6.060;2023-04-03T12:35:49;7.25;;;1.90;;
26718;SDS011;14326;50.794;6.060;2023-04-03T12:38:35;5.78;;;2.03;;
26718;SDS011;14326;50.794;6.060;2023-04-03T12:41:26;8.10;;;2.00;;
26718;SDS011;14326;50.794;6.060;2023-04-03T12:47:16;13.45;;;2.63;;
26718;SDS011;14326;50.794;6.060;2023-04-03T12:49:49;9.10;;;2.35;;
26718;SDS011;14326;50.794;6.060;2023-04-03T12:52:20;8.45;;;1.90;;
26718;SDS011;14326;50.794;6.060;2023-04-03T12:54:58;9.90;;;2.20;;
26718;SDS011;14326;50.794;6.060;2023-04-03T12:57:29;5.25;;;1.58;;
26718;SDS011;14326;50.794;6.060;2023-04-03T12:59:57;7.15;;;2.10;;
26718;SDS011;14326;50.794;6.060;2023-04-03T13:02:25;7.70;;;1.73;;
26718;SDS011;14326;50.794;6.060;2023-04-03T13:04:54;7.55;;;2.10;;
26718;SDS011;14326;50.794;6.060;2023-04-03T13:10:02;7.90;;;2.05;;
26718;SDS011;14326;50.794;6.060;2023-04-03T13:12:45;9.43;;;1.73;;
26718;SDS011;14326;50.794;6.060;2023-04-03T13:15:14;11.18;;;1.90;;
26718;SDS011;14326;50.794;6.060;2023-04-03T13:17:42;4.93;;;1.55;;
26718;SDS011;14326;50.794;6.060;2023-04-03T13:20:11;5.05;;;1.60;;
26718;SDS011;14326;50.794;6.060;2023-04-03T13:22:43;6.10;;;1.55;;
26718;SDS011;14326;50.794;6.060;2023-04-03T13:25:17;7.63;;;1.52;;
26718;SDS011;14326;50.794;6.060;2023-04-03T13:27:52;7.80;;;1.90;;
26718;SDS011;14326;50.794;6.060;2023-04-03T13:30:30;6.57;;;1.67;;
26718;SDS011;14326;50.794;6.060;2023-04-03T13:33:04;7.20;;;1.85;;
26718;SDS011;14326;50.794;6.060;2023-04-03T13:35:34;4.65;;;1.60;;
26718;SDS011;14326;50.794;6.060;2023-04-03T13:38:06;6.13;;;1.95;;
26718;SDS011;14326;50.794;6.060;2023-04-03T13:40:51;8.90;;;1.83;;
26718;SDS011;14326;50.794;6.060;2023-04-03T13:43:20;6.82;;;1.80;;
26718;SDS011;14326;50.794;6.060;2023-04-03T13:45:54;9.60;;;1.80;;
26718;SDS011;14326;50.794;6.060;2023-04-03T13:48:23;6.55;;;1.38;;
26718;SDS011;14326;50.794;6.060;2023-04-03T13:51:16;9.38;;;1.63;;
26718;SDS011;14326;50.794;6.060;2023-04-03T13:53:51;8.38;;;1.52;;
26718;SDS011;14326;50.794;6.060;2023-04-03T13:56:23;11.90;;;1.92;;
26718;SDS011;14326;50.794;6.060;2023-04-03T13:59:03;4.93;;;1.52;;
26718;SDS011;14326;50.794;6.060;2023-04-03T14:02:08;11.20;;;2.22;;
26718;SDS011;14326;50.794;6.060;2023-04-03T14:05:27;7.43;;;1.85;;
26718;SDS011;14326;50.794;6.060;2023-04-03T14:07:57;6.07;;;1.73;;
26718;SDS011;14326;50.794;6.060;2023-04-03T14:10:41;4.60;;;1.45;;
26718;SDS011;14326;50.794;6.060;2023-04-03T14:16:12;6.72;;;1.48;;
26718;SDS011;14326;50.794;6.060;2023-04-03T14:18:51;6.38;;;1.60;;
26718;SDS011;14326;50.794;6.060;2023-04-03T14:21:28;3.40;;;1.42;;
26718;SDS011;14326;50.794;6.060;2023-04-03T14:24:01;6.20;;;1.50;;
26718;SDS011;14326;50.794;6.060;2023-04-03T14:26:36;7.47;;;1.55;;
26718;SDS011;14326;50.794;6.060;2023-04-03T14:29:24;8.52;;;2.00;;
26718;SDS011;14326;50.794;6.060;2023-04-03T14:31:58;6.88;;;1.65;;
26718;SDS011;14326;50.794;6.060;2023-04-03T14:34:25;7.80;;;1.85;;
26718;SDS011;14326;50.794;6.060;2023-04-03T14:36:52;10.32;;;1.77;;
26718;SDS011;14326;50.794;6.060;2023-04-03T14:39:19;7.78;;;2.05;;
26718;SDS011;14326;50.794;6.060;2023-04-03T14:41:45;7.63;;;1.55;;
26718;SDS011;14326;50.794;6.060;2023-04-03T14:44:12;8.60;;;1.70;;
26718;SDS011;14326;50.794;6.060;2023-04-03T14:46:41;4.40;;;1.50;;
26718;SDS011;14326;50.794;6.060;2023-04-03T14:49:10;4.55;;;1.52;;
26718;SDS011;14326;50.794;6.060;2023-04-03T14:51:40;6.18;;;1.40;;
26718;SDS011;14326;50.794;6.060;2023-04-03T14:54:10;6.78;;;1.55;;
26718;SDS011;14326;50.794;6.060;2023-04-03T14:56:39;5.47;;;1.52;;
26718;SDS011;14326;50.794;6.060;2023-04-03T14:59:08;7.38;;;1.33;;
26718;SDS011;14326;50.794;6.060;2023-04-03T15:01:38;8.50;;;1.67;;
26718;SDS011;14326;50.794;6.060;2023-04-03T15:04:09;5.93;;;1.73;;
26718;SDS011;14326;50.794;6.060;2023-04-03T15:07:03;8.00;;;2.80;;
26718;SDS011;14326;50.794;6.060;2023-04-03T15:09:38;4.30;;;1.50;;
26718;SDS011;14326;50.794;6.060;2023-04-03T15:15:28;4.45;;;1.27;;
26718;SDS011;14326;50.794;6.060;2023-04-03T15:18:15;7.43;;;1.48;;
26718;SDS011;14326;50.794;6.060;2023-04-03T15:21:02;7.57;;;1.30;;
26718;SDS011;14326;50.794;6.060;2023-04-03T15:23:54;5.43;;;1.38;;
26718;SDS011;14326;50.794;6.060;2023-04-03T15:27:01;6.25;;;1.50;;
26718;SDS011;14326;50.794;6.060;2023-04-03T15:29:49;9.43;;;2.00;;
26718;SDS011;14326;50.794;6.060;2023-04-03T15:35:20;6.55;;;1.58;;
26718;SDS011;14326;50.794;6.060;2023-04-03T15:38:00;4.25;;;1.20;;
26718;SDS011;14326;50.794;6.060;2023-04-03T15:40:50;4.97;;;1.33;;
26718;SDS011;14326;50.794;6.060;2023-04-03T15:43:16;5.32;;;1.35;;
26718;SDS011;14326;50.794;6.060;2023-04-03T15:45:49;8.45;;;2.33;;
26718;SDS011;14326;50.794;6.060;2023-04-03T15:48:22;4.90;;;1.50;;
26718;SDS011;14326;50.794;6.060;2023-04-03T15:50:59;4.85;;;1.40;;
26718;SDS011;14326;50.794;6.060;2023-04-03T15:53:37;4.20;;;1.50;;
26718;SDS011;14326;50.794;6.060;2023-04-03T15:56:03;6.43;;;1.45;;
26718;SDS011;14326;50.794;6.060;2023-04-03T15:58:40;7.07;;;1.52;;
26718;SDS011;14326;50.794;6.060;2023-04-03T16:01:10;8.65;;;1.65;;
26718;SDS011;14326;50.794;6.060;2023-04-03T16:03:51;3.25;;;1.25;;
26718;SDS011;14326;50.794;6.060;2023-04-03T16:06:52;5.78;;;1.88;;
26718;SDS011;14326;50.794;6.060;2023-04-03T16:09:35;7.15;;;1.60;;
26718;SDS011;14326;50.794;6.060;2023-04-03T16:12:04;9.77;;;1.70;;
26718;SDS011;14326;50.794;6.060;2023-04-03T16:14:53;6.28;;;1.52;;
26718;SDS011;14326;50.794;6.060;2023-04-03T16:17:40;6.22;;;1.50;;
26718;SDS011;14326;50.794;6.060;2023-04-03T16:20:41;4.35;;;1.40;;
26718;SDS011;14326;50.794;6.060;2023-04-03T16:23:20;7.18;;;1.90;;
26718;SDS011;14326;50.794;6.060;2023-04-03T16:25:56;6.07;;;1.80;;
26718;SDS011;14326;50.794;6.060;2023-04-03T16:28:33;7.03;;;1.50;;
26718;SDS011;14326;50.794;6.060;2023-04-03T16:31:11;4.07;;;1.55;;
26718;SDS011;14326;50.794;6.060;2023-04-03T16:36:24;7.63;;;2.15;;
26718;SDS011;14326;50.794;6.060;2023-04-03T16:39:07;4.68;;;1.77;;
26718;SDS011;14326;50.794;6.060;2023-04-03T16:41:36;6.47;;;1.77;;
26718;SDS011;14326;50.794;6.060;2023-04-03T16:44:09;6.00;;;1.70;;
26718;SDS011;14326;50.794;6.060;2023-04-03T16:46:53;9.35;;;1.70;;
26718;SDS011;14326;50.794;6.060;2023-04-03T16:49:42;6.18;;;1.70;;
26718;SDS011;14326;50.794;6.060;2023-04-03T16:52:09;7.50;;;2.00;;
26718;SDS011;14326;50.794;6.060;2023-04-03T16:57:31;5.20;;;1.75;;
26718;SDS011;14326;50.794;6.060;2023-04-03T17:00:24;5.18;;;1.80;;
26718;SDS011;14326;50.794;6.060;2023-04-03T17:03:03;5.28;;;1.58;;
26718;SDS011;14326;50.794;6.060;2023-04-03T17:05:50;4.50;;;1.63;;
26718;SDS011;14326;50.794;6.060;2023-04-03T17:10:58;6.65;;;1.88;;
26718;SDS011;14326;50.794;6.060;2023-04-03T17:13:30;6.18;;;1.63;;
26718;SDS011;14326;50.794;6.060;2023-04-03T17:16:11;10.48;;;1.73;;
26718;SDS011;14326;50.794;6.060;2023-04-03T17:18:55;10.73;;;2.05;;
26718;SDS011;14326;50.794;6.060;2023-04-03T17:21:21;9.32;;;2.47;;
26718;SDS011;14326;50.794;6.060;2023-04-03T17:23:53;8.43;;;1.60;;
26718;SDS011;14326;50.794;6.060;2023-04-03T17:26:44;5.20;;;2.22;;
26718;SDS011;14326;50.794;6.060;2023-04-03T17:29:20;11.95;;;1.83;;
26718;SDS011;14326;50.794;6.060;2023-04-03T17:32:04;10.40;;;2.22;;
26718;SDS011;14326;50.794;6.060;2023-04-03T17:34:47;10.52;;;2.00;;
26718;SDS011;14326;50.794;6.060;2023-04-03T17:37:16;9.38;;;2.05;;
26718;SDS011;14326;50.794;6.060;2023-04-03T17:42:44;10.63;;;2.30;;
26718;SDS011;14326;50.794;6.060;2023-04-03T17:45:32;15.95;;;4.65;;
26718;SDS011;14326;50.794;6.060;2023-04-03T17:48:24;12.95;;;2.85;;
26718;SDS011;14326;50.794;6.060;2023-04-03T17:54:25;7.13;;;1.50;;
26718;SDS011;14326;50.794;6.060;2023-04-03T17:57:20;10.70;;;2.10;;
26718;SDS011;14326;50.794;6.060;2023-04-03T18:00:01;11.93;;;2.42;;
26718;SDS011;14326;50.794;6.060;2023-04-03T18:03:06;11.13;;;2.17;;
26718;SDS011;14326;50.794;6.060;2023-04-03T18:05:49;10.63;;;2.15;;
26718;SDS011;14326;50.794;6.060;2023-04-03T18:08:27;10.80;;;2.22;;
26718;SDS011;14326;50.794;6.060;2023-04-03T18:11:19;8.30;;;1.90;;
26718;SDS011;14326;50.794;6.060;2023-04-03T18:14:10;10.07;;;2.03;;
26718;SDS011;14326;50.794;6.060;2023-04-03T18:16:39;8.98;;;2.20;;
26718;SDS011;14326;50.794;6.060;2023-04-03T18:19:10;9.73;;;2.05;;
26718;SDS011;14326;50.794;6.060;2023-04-03T18:21:40;9.57;;;1.90;;
26718;SDS011;14326;50.794;6.060;2023-04-03T18:24:28;9.07;;;2.33;;
26718;SDS011;14326;50.794;6.060;2023-04-03T18:27:33;11.45;;;2.03;;
26718;SDS011;14326;50.794;6.060;2023-04-03T18:30:03;7.93;;;1.70;;